Time;durP1;ratioP1;P1;durP2;ratioP2;P2;SDS_P1;SDS_P2;PMS_P1;PMS_P2;Temp;Humidity;BMP_temperature;BMP_pressure;BME280_temperature;BME280_humidity;BME280_pressure;Samples;Min_cycle;Max_cycle;Signal;HPM_P1;HPM_P2
2022/08/23 00:01:21;;;;;;;1.20;1.00;;;22.10;14.00;;;;;;5055168;28;20497;-87
2022/08/23 00:03:47;;;;;;;1.13;1.02;;;22.10;11.30;;;;;;5054983;28;20033;-87
2022/08/23 00:06:13;;;;;;;1.60;1.20;;;22.10;7.20;;;;;;5054688;28;20029;-87
2022/08/23 00:08:39;;;;;;;3.53;1.20;;;22.10;18.60;;;;;;5054246;28;20035;-87
2022/08/23 00:11:05;;;;;;;2.70;1.25;;;22.00;10.00;;;;;;5054850;28;20099;-88
2022/08/23 00:13:32;;;;;;;2.65;1.30;;;21.90;12.30;;;;;;5054689;28;20551;-87
2022/08/23 00:15:59;;;;;;;1.88;1.10;;;21.90;13.20;;;;;;5054729;28;20116;-87
2022/08/23 00:18:25;;;;;;;3.25;1.45;;;21.90;11.80;;;;;;5054680;28;20611;-88
2022/08/23 00:20:51;;;;;;;1.67;1.40;;;21.90;9.90;;;;;;5054334;28;20095;-87
2022/08/23 00:23:17;;;;;;;1.90;1.40;;;21.80;9.80;;;;;;5054722;28;20381;-88
2022/08/23 00:25:43;;;;;;;1.33;1.10;;;21.70;8.80;;;;;;5054521;28;20100;-87
2022/08/23 00:28:09;;;;;;;1.75;1.33;;;21.60;11.20;;;;;;5054277;28;20052;-87
2022/08/23 00:30:36;;;;;;;2.05;1.20;;;21.60;13.30;;;;;;5054439;28;20112;-87
2022/08/23 00:33:02;;;;;;;1.42;1.00;;;21.60;14.90;;;;;;5054526;28;20542;-87
2022/08/23 00:35:28;;;;;;;2.33;1.10;;;21.60;13.00;;;;;;5054039;28;20057;-87
2022/08/23 00:37:56;;;;;;;1.30;1.20;;;21.50;8.60;;;;;;5054511;28;20085;-87
2022/08/23 00:40:22;;;;;;;1.38;1.13;;;21.50;13.30;;;;;;5054436;28;20025;-88
2022/08/23 00:48:44;;;;;;;1.15;0.90;;;21.30;15.20;;;;;;5054281;28;20128;-87
2022/08/23 00:51:23;;;;;;;1.95;1.05;;;21.30;14.50;;;;;;5054158;28;20041;-87
2022/08/23 00:53:54;;;;;;;1.85;0.93;;;21.20;13.70;;;;;;5054104;28;20017;-87
2022/08/23 00:56:23;;;;;;;2.70;1.20;;;21.20;15.80;;;;;;5054012;28;20409;-87
2022/08/23 00:58:49;;;;;;;2.22;0.95;;;21.20;15.30;;;;;;5053988;28;20025;-87
2022/08/23 01:01:15;;;;;;;3.17;1.13;;;21.00;11.60;;;;;;5053996;28;20029;-87
2022/08/23 01:03:48;;;;;;;2.45;1.00;;;21.00;14.80;;;;;;5053555;28;20024;-87
2022/08/23 01:06:18;;;;;;;2.53;1.42;;;21.00;18.20;;;;;;5053851;28;20179;-88
2022/08/23 01:08:50;;;;;;;2.50;1.25;;;21.10;20.20;;;;;;5035966;28;20409;-87
2022/08/23 01:11:22;;;;;;;2.17;1.50;;;21.10;18.90;;;;;;5053687;28;20040;-87
2022/08/23 01:14:10;;;;;;;1.90;1.30;;;21.00;18.60;;;;;;5053560;28;20032;-87
2022/08/23 01:16:44;;;;;;;1.70;1.20;;;21.00;16.50;;;;;;5053622;28;20029;-87
2022/08/23 01:19:18;;;;;;;2.03;1.17;;;20.90;16.40;;;;;;5052790;28;20096;-87
2022/08/23 01:22:14;;;;;;;1.20;1.10;;;21.00;18.40;;;;;;5053325;28;20151;-87
2022/08/23 01:24:42;;;;;;;2.50;1.15;;;21.00;26.60;;;;;;5053512;28;20046;-87
2022/08/23 01:27:11;;;;;;;2.25;1.20;;;21.00;17.90;;;;;;5053282;28;20060;-87
2022/08/23 01:29:37;;;;;;;4.00;1.23;;;20.90;17.50;;;;;;5053227;28;20107;-88
2022/08/23 01:32:04;;;;;;;1.58;0.90;;;20.80;17.80;;;;;;5053258;28;20562;-87
2022/08/23 01:34:30;;;;;;;1.27;0.98;;;20.80;15.70;;;;;;5052968;28;20029;-87
2022/08/23 01:36:57;;;;;;;2.58;0.98;;;20.90;14.30;;;;;;5053240;28;20036;-87
2022/08/23 01:39:22;;;;;;;2.25;1.17;;;20.80;18.60;;;;;;5053326;28;20090;-87
2022/08/23 01:41:50;;;;;;;1.00;0.90;;;20.80;14.50;;;;;;5053302;28;20474;-87
2022/08/23 01:44:16;;;;;;;1.05;0.80;;;20.80;17.90;;;;;;5053222;28;20028;-87
2022/08/23 01:46:44;;;;;;;1.50;0.90;;;20.70;18.50;;;;;;5052748;28;20025;-87
2022/08/23 01:49:11;;;;;;;1.50;1.00;;;20.50;23.10;;;;;;5053249;28;20029;-87
2022/08/23 01:51:37;;;;;;;2.33;1.13;;;20.60;18.00;;;;;;5052841;28;20406;-87
2022/08/23 01:54:03;;;;;;;1.88;1.15;;;20.50;18.70;;;;;;5053100;28;20021;-88
2022/08/23 01:56:31;;;;;;;1.05;0.95;;;20.60;17.10;;;;;;5035033;28;20409;-87
2022/08/23 01:58:57;;;;;;;1.40;1.10;;;20.50;17.80;;;;;;5052826;28;20025;-88
2022/08/23 02:01:22;;;;;;;3.38;1.10;;;20.60;14.20;;;;;;5052669;28;20083;-87
2022/08/23 02:03:48;;;;;;;1.83;1.42;;;20.60;13.30;;;;;;5052936;28;20025;-87
2022/08/23 02:06:13;;;;;;;1.92;1.00;;;20.60;15.60;;;;;;5052784;28;20036;-87
2022/08/23 02:11:24;;;;;;;4.97;1.10;;;20.50;24.20;;;;;;5052701;28;20086;-88
2022/08/23 02:13:52;;;;;;;1.35;0.85;;;20.50;20.90;;;;;;5052504;28;20105;-87
2022/08/23 02:16:27;;;;;;;1.25;1.10;;;20.50;24.00;;;;;;5052092;28;20482;-87
2022/08/23 02:18:53;;;;;;;1.35;0.88;;;20.50;25.10;;;;;;5052699;28;20496;-87
2022/08/23 02:21:20;;;;;;;1.40;1.08;;;20.50;21.50;;;;;;5052522;28;20055;-87
2022/08/23 02:23:46;;;;;;;1.58;0.90;;;20.50;21.50;;;;;;5052568;28;20047;-88
2022/08/23 02:26:12;;;;;;;2.53;1.20;;;20.50;21.80;;;;;;5052502;28;20033;-87
2022/08/23 02:28:38;;;;;;;2.63;1.45;;;20.50;23.00;;;;;;5052376;28;20405;-87
2022/08/23 02:31:04;;;;;;;1.40;1.17;;;20.50;23.90;;;;;;5051840;28;20063;-87
2022/08/23 02:33:29;;;;;;;1.25;1.10;;;20.50;18.00;;;;;;5052415;28;20098;-87
2022/08/23 02:35:55;;;;;;;2.60;1.10;;;20.50;18.40;;;;;;5044109;28;20386;-87
2022/08/23 02:38:20;;;;;;;1.08;0.90;;;20.50;18.90;;;;;;5052463;28;20028;-87
2022/08/23 02:40:47;;;;;;;1.70;0.98;;;20.50;21.50;;;;;;5052438;28;20033;-87
2022/08/23 02:43:13;;;;;;;1.20;1.10;;;20.40;20.20;;;;;;5052454;28;20053;-87
2022/08/23 02:45:39;;;;;;;1.45;1.15;;;20.40;20.20;;;;;;5051959;28;20064;-88
2022/08/23 02:48:05;;;;;;;1.42;1.13;;;20.40;23.00;;;;;;5052370;28;20051;-88
2022/08/23 02:50:30;;;;;;;1.88;1.10;;;20.30;22.00;;;;;;5052308;28;20549;-87
2022/08/23 02:52:56;;;;;;;1.33;1.20;;;20.40;19.60;;;;;;5052262;28;20033;-87
2022/08/23 02:55:22;;;;;;;2.08;1.20;;;20.30;22.20;;;;;;5052379;28;20462;-87
2022/08/23 02:57:48;;;;;;;1.80;1.40;;;20.30;22.50;;;;;;5052250;28;20052;-87
2022/08/23 03:00:17;;;;;;;3.72;1.40;;;20.40;22.50;;;;;;5051830;28;20055;-88
2022/08/23 03:02:43;;;;;;;1.83;1.20;;;20.40;23.80;;;;;;5052254;28;20040;-87
2022/08/23 03:05:09;;;;;;;1.80;1.25;;;20.40;20.70;;;;;;5052191;28;20021;-87
2022/08/23 03:07:35;;;;;;;2.35;1.30;;;20.30;22.50;;;;;;5052150;28;20047;-87
2022/08/23 03:10:01;;;;;;;1.92;1.20;;;20.20;21.60;;;;;;5052037;28;20021;-87
2022/08/23 03:12:27;;;;;;;1.83;1.20;;;20.20;23.60;;;;;;5051999;28;20041;-87
2022/08/23 03:14:53;;;;;;;1.77;1.35;;;20.10;18.20;;;;;;5051584;28;20075;-88
2022/08/23 03:17:19;;;;;;;2.03;1.33;;;20.10;20.90;;;;;;5052067;28;20170;-87
2022/08/23 03:19:45;;;;;;;2.20;1.30;;;20.10;23.90;;;;;;5052062;28;20052;-87
2022/08/23 03:22:10;;;;;;;4.28;1.70;;;20.10;21.20;;;;;;5051928;28;20478;-88
2022/08/23 03:24:36;;;;;;;2.65;1.23;;;20.00;21.50;;;;;;5034000;28;20120;-88
2022/08/23 03:27:03;;;;;;;1.40;1.15;;;19.90;21.50;;;;;;5051777;28;20188;-87
2022/08/23 03:29:30;;;;;;;1.40;1.20;;;19.90;24.80;;;;;;5051522;28;20028;-87
2022/08/23 03:31:56;;;;;;;3.15;1.55;;;19.90;24.10;;;;;;5051791;28;20040;-87
2022/08/23 03:34:22;;;;;;;3.70;1.40;;;19.90;24.80;;;;;;5051938;28;20021;-87
2022/08/23 03:36:48;;;;;;;1.65;1.45;;;19.90;23.40;;;;;;5051825;28;20033;-87
2022/08/23 03:39:13;;;;;;;2.05;1.50;;;19.90;21.00;;;;;;5051969;28;20036;-87
2022/08/23 03:41:39;;;;;;;3.85;1.42;;;19.80;24.10;;;;;;5051904;28;20025;-87
2022/08/23 03:44:04;;;;;;;3.20;1.48;;;19.80;22.40;;;;;;5053835;28;20504;-87
2022/08/23 03:46:31;;;;;;;2.47;1.48;;;19.80;20.10;;;;;;5055292;28;20540;-87
2022/08/23 03:48:58;;;;;;;2.28;1.45;;;19.70;25.60;;;;;;5055390;28;20044;-87
2022/08/23 03:51:25;;;;;;;2.45;1.60;;;19.70;22.40;;;;;;5055203;28;20041;-87
2022/08/23 03:53:52;;;;;;;2.20;1.40;;;19.70;32.80;;;;;;5055321;28;20064;-87
2022/08/23 03:56:30;;;;;;;1.63;1.30;;;19.70;35.90;;;;;;5055120;28;20064;-88
2022/08/23 03:58:58;;;;;;;3.75;1.63;;;19.70;37.30;;;;;;5054771;28;20560;-87
2022/08/23 04:01:23;;;;;;;3.42;1.92;;;19.70;33.60;;;;;;5055130;28;20385;-87
2022/08/23 04:03:49;;;;;;;5.82;2.78;;;19.70;28.20;;;;;;5055219;28;20021;-87
2022/08/23 04:06:16;;;;;;;4.60;3.80;;;19.70;29.80;;;;;;5055009;28;20482;-87
2022/08/23 04:08:43;;;;;;;6.95;5.25;;;19.70;29.50;;;;;;5037215;28;20041;-87
2022/08/23 04:11:11;;;;;;;8.25;6.35;;;19.70;39.30;;;;;;5054999;28;20398;-88
2022/08/23 04:13:38;;;;;;;13.50;7.70;;;19.60;30.90;;;;;;5054318;28;20048;-88
2022/08/23 04:16:04;;;;;;;16.80;11.07;;;19.60;32.80;;;;;;5054814;28;20107;-88
2022/08/23 04:18:31;;;;;;;13.32;9.85;;;19.60;35.70;;;;;;5054839;28;20025;-88
2022/08/23 04:21:02;;;;;;;12.68;9.00;;;19.60;29.00;;;;;;5046659;28;20025;-88
2022/08/23 04:23:28;;;;;;;10.30;8.43;;;19.60;32.30;;;;;;5054654;28;20052;-88
2022/08/23 04:25:54;;;;;;;11.45;7.90;;;19.60;35.50;;;;;;5054576;28;20029;-88
2022/08/23 04:28:21;;;;;;;8.60;5.90;;;19.60;28.50;;;;;;5054117;28;20449;-87
2022/08/23 04:30:47;;;;;;;8.20;5.13;;;19.60;31.40;;;;;;5054394;28;20388;-88
2022/08/23 04:33:13;;;;;;;4.70;4.30;;;19.60;27.40;;;;;;5054663;28;20382;-88
2022/08/23 04:35:40;;;;;;;6.78;3.92;;;19.60;27.30;;;;;;5054416;28;20036;-87
2022/08/23 04:38:06;;;;;;;4.38;3.75;;;19.60;28.20;;;;;;5054287;28;20032;-87
2022/08/23 04:43:15;;;;;;;3.80;2.83;;;19.60;30.40;;;;;;5054352;28;20070;-87
2022/08/23 04:45:41;;;;;;;5.43;2.97;;;19.60;30.10;;;;;;5054291;28;20033;-88
2022/08/23 04:48:08;;;;;;;4.70;2.65;;;19.60;32.60;;;;;;5036376;28;20071;-87
2022/08/23 04:50:34;;;;;;;2.67;2.10;;;19.60;33.50;;;;;;5054172;28;20529;-87
2022/08/23 04:53:00;;;;;;;2.80;2.20;;;19.60;31.50;;;;;;5054117;28;20063;-88
2022/08/23 04:55:27;;;;;;;10.95;10.15;;;19.60;33.20;;;;;;5053619;28;20029;-87
2022/08/23 04:57:53;;;;;;;5.25;3.15;;;19.60;33.30;;;;;;5054080;28;20017;-87
2022/08/23 05:00:19;;;;;;;3.47;2.33;;;19.60;31.70;;;;;;5054011;28;20036;-87
2022/08/23 05:02:45;;;;;;;2.85;2.50;;;19.60;31.20;;;;;;5053985;28;20024;-88
2022/08/23 05:05:11;;;;;;;3.13;2.20;;;19.60;32.60;;;;;;5053875;28;20033;-88
2022/08/23 05:07:38;;;;;;;5.32;2.30;;;19.60;32.70;;;;;;5053802;28;20504;-87
2022/08/23 05:10:06;;;;;;;3.45;2.00;;;19.60;33.60;;;;;;5053388;28;20028;-87
2022/08/23 05:12:32;;;;;;;3.25;2.17;;;19.60;34.90;;;;;;5053788;28;20033;-87
2022/08/23 05:14:57;;;;;;;3.90;2.10;;;19.70;34.10;;;;;;5053440;28;20397;-87
2022/08/23 05:17:23;;;;;;;2.05;1.85;;;19.70;33.20;;;;;;5053842;28;20032;-88
2022/08/23 05:19:49;;;;;;;4.43;1.88;;;19.70;31.40;;;;;;5053669;28;20025;-88
2022/08/23 05:22:14;;;;;;;2.88;1.70;;;19.80;30.30;;;;;;5053459;28;20288;-87
2022/08/23 05:24:40;;;;;;;3.83;1.90;;;19.80;31.40;;;;;;5053179;28;20056;-87
2022/08/23 05:27:05;;;;;;;3.42;1.65;;;19.80;30.00;;;;;;5053025;28;20044;-87
2022/08/23 05:29:31;;;;;;;3.42;1.60;;;19.90;27.80;;;;;;5053184;28;20021;-87
2022/08/23 05:31:57;;;;;;;2.00;1.75;;;19.90;44.00;;;;;;5053329;28;20041;-87
2022/08/23 05:34:23;;;;;;;2.13;1.67;;;19.90;35.70;;;;;;5053251;28;20525;-87
2022/08/23 05:36:48;;;;;;;4.20;1.92;;;19.90;30.30;;;;;;5053325;28;20094;-87
2022/08/23 05:39:14;;;;;;;3.47;1.88;;;19.90;30.30;;;;;;5053013;28;20017;-88
2022/08/23 05:41:41;;;;;;;1.80;1.60;;;19.90;26.40;;;;;;5035318;28;20044;-87
2022/08/23 05:44:07;;;;;;;5.10;1.80;;;19.90;31.40;;;;;;5053170;28;20058;-87
2022/08/23 05:46:33;;;;;;;4.65;2.00;;;20.00;30.10;;;;;;5053047;28;20090;-88
2022/08/23 05:48:59;;;;;;;2.22;1.70;;;20.00;34.10;;;;;;5053117;28;20025;-87
2022/08/23 05:51:30;;;;;;;1.95;1.70;;;20.00;39.70;;;;;;5052921;28;20382;-88
2022/08/23 05:53:59;;;;;;;1.67;1.58;;;20.00;37.10;;;;;;5048120;28;20474;-87
2022/08/23 05:56:30;;;;;;;3.95;1.70;;;20.10;37.10;;;;;;5052846;28;20029;-88
2022/08/23 05:58:59;;;;;;;2.63;1.70;;;20.20;35.80;;;;;;5052738;28;20482;-87
2022/08/23 06:01:26;;;;;;;2.13;1.80;;;20.20;30.40;;;;;;5052884;28;20032;-88
2022/08/23 06:03:52;;;;;;;3.28;1.70;;;20.20;31.00;;;;;;5052884;28;20048;-87
2022/08/23 06:06:19;;;;;;;1.90;1.80;;;20.10;29.50;;;;;;5052284;28;20502;-88
2022/08/23 06:08:46;;;;;;;2.00;1.80;;;20.20;29.70;;;;;;5052466;28;20029;-87
2022/08/23 06:11:18;;;;;;;2.10;1.52;;;20.30;30.10;;;;;;5052526;28;20083;-88
2022/08/23 06:13:50;;;;;;;1.92;1.73;;;20.20;29.00;;;;;;5052517;28;20025;-88
2022/08/23 06:16:18;;;;;;;2.15;1.73;;;20.30;37.70;;;;;;5052549;28;20056;-88
2022/08/23 06:18:46;;;;;;;1.88;1.75;;;20.30;35.60;;;;;;5052765;28;20526;-88
2022/08/23 06:21:13;;;;;;;3.42;1.90;;;20.30;33.70;;;;;;5052765;28;20125;-87
2022/08/23 06:23:40;;;;;;;4.40;1.90;;;20.20;32.50;;;;;;5052048;28;20025;-88
2022/08/23 06:26:14;;;;;;;2.58;1.73;;;20.20;34.20;;;;;;5052553;28;20028;-87
2022/08/23 06:28:42;;;;;;;3.83;1.90;;;20.40;29.90;;;;;;5052325;28;20048;-88
2022/08/23 06:31:09;;;;;;;3.95;2.15;;;20.40;31.30;;;;;;5052390;28;20473;-88
2022/08/23 06:33:36;;;;;;;2.13;1.90;;;20.50;29.40;;;;;;5052352;28;20033;-87
2022/08/23 06:36:07;;;;;;;3.75;2.00;;;20.40;25.50;;;;;;5052328;28;20490;-88
2022/08/23 06:38:34;;;;;;;2.08;1.88;;;20.50;31.80;;;;;;5052048;28;20029;-87
2022/08/23 06:41:05;;;;;;;3.50;1.92;;;20.40;28.90;;;;;;5052426;28;20393;-88
2022/08/23 06:43:31;;;;;;;2.28;2.05;;;20.50;30.50;;;;;;5052399;28;20021;-88
2022/08/23 06:46:19;;;;;;;3.05;2.10;;;20.60;30.00;;;;;;5052312;28;20025;-88
2022/08/23 06:48:46;;;;;;;4.22;1.98;;;20.60;40.80;;;;;;5052268;28;20094;-88
2022/08/23 06:51:24;;;;;;;3.80;2.10;;;20.60;35.90;;;;;;5051935;28;20037;-87
2022/08/23 06:53:55;;;;;;;2.10;1.70;;;20.60;31.80;;;;;;5052201;28;20033;-87
2022/08/23 06:56:23;;;;;;;3.80;2.28;;;20.70;32.40;;;;;;5052261;28;20457;-87
2022/08/23 06:58:49;;;;;;;2.33;1.95;;;20.60;30.40;;;;;;5052174;28;20021;-87
2022/08/23 07:01:17;;;;;;;6.20;2.25;;;20.60;29.60;;;;;;5052256;28;20021;-88
2022/08/23 07:03:44;;;;;;;2.95;1.98;;;20.60;29.20;;;;;;5052146;28;20504;-88
2022/08/23 07:06:10;;;;;;;4.75;2.30;;;20.60;27.30;;;;;;5051740;28;20017;-87
2022/08/23 07:08:35;;;;;;;5.47;2.22;;;20.70;28.50;;;;;;5052160;28;20044;-87
2022/08/23 07:11:01;;;;;;;3.67;2.05;;;20.70;32.80;;;;;;5052010;28;20056;-87
2022/08/23 07:13:27;;;;;;;3.50;2.30;;;20.80;32.30;;;;;;5051873;28;20029;-88
2022/08/23 07:15:59;;;;;;;3.00;2.22;;;20.60;32.70;;;;;;5052094;28;20082;-88
2022/08/23 07:18:25;;;;;;;6.50;2.58;;;20.70;40.50;;;;;;5053436;28;20029;-87
2022/08/23 07:20:59;;;;;;;4.72;2.05;;;20.70;27.30;;;;;;5055601;28;20021;-88
2022/08/23 07:23:26;;;;;;;3.10;2.22;;;20.80;34.10;;;;;;5055857;28;20037;-87
2022/08/23 07:25:52;;;;;;;4.25;2.30;;;20.90;35.30;;;;;;5055797;28;20139;-87
2022/08/23 07:28:18;;;;;;;2.85;2.25;;;21.00;29.30;;;;;;5055550;28;20068;-87
2022/08/23 07:30:44;;;;;;;3.45;2.35;;;21.10;29.30;;;;;;5055479;28;20087;-87
2022/08/23 07:33:10;;;;;;;8.27;2.83;;;21.00;27.80;;;;;;5055616;28;20116;-87
2022/08/23 07:35:36;;;;;;;3.70;2.25;;;21.20;27.60;;;;;;5055182;28;20040;-87
2022/08/23 07:38:01;;;;;;;3.17;2.50;;;21.40;26.50;;;;;;5055654;28;20052;-87
2022/08/23 07:40:27;;;;;;;4.72;2.53;;;21.50;27.90;;;;;;5055459;28;20032;-87
2022/08/23 07:42:55;;;;;;;3.17;2.50;;;21.40;28.30;;;;;;5055457;28;20147;-87
2022/08/23 07:45:21;;;;;;;3.20;2.42;;;21.40;34.60;;;;;;5055492;28;20017;-88
2022/08/23 07:47:47;;;;;;;5.68;2.40;;;21.40;33.60;;;;;;5055353;28;20037;-87
2022/08/23 07:50:13;;;;;;;6.18;2.55;;;21.40;30.20;;;;;;5055008;28;20493;-87
2022/08/23 07:52:39;;;;;;;4.57;2.58;;;21.50;25.60;;;;;;5055338;28;20084;-88
2022/08/23 07:55:06;;;;;;;3.47;2.40;;;21.60;26.60;;;;;;5055109;28;20112;-87
2022/08/23 07:57:32;;;;;;;5.95;2.63;;;21.60;32.40;;;;;;5055112;28;20025;-87
2022/08/23 07:59:57;;;;;;;6.47;2.95;;;21.60;28.60;;;;;;5055174;28;20031;-87
2022/08/23 08:02:23;;;;;;;5.43;2.53;;;21.90;28.30;;;;;;5055033;28;20057;-87
2022/08/23 08:04:48;;;;;;;4.88;2.97;;;22.00;36.70;;;;;;5054690;28;20490;-87
2022/08/23 08:07:14;;;;;;;4.43;2.30;;;22.20;39.70;;;;;;5055108;28;20025;-88
2022/08/23 08:09:39;;;;;;;3.22;2.55;;;22.20;30.70;;;;;;5055032;28;20115;-88
2022/08/23 08:12:05;;;;;;;2.92;2.30;;;22.20;31.50;;;;;;5054811;28;20110;-88
2022/08/23 08:14:31;;;;;;;3.55;2.53;;;22.20;29.80;;;;;;5054726;28;20028;-87
2022/08/23 08:16:59;;;;;;;4.10;2.38;;;22.30;28.80;;;;;;5054897;28;20481;-87
2022/08/23 08:19:24;;;;;;;4.85;2.53;;;22.40;32.60;;;;;;5054486;28;20029;-88
2022/08/23 08:21:50;;;;;;;4.80;2.47;;;22.40;28.80;;;;;;5054826;28;20108;-87
2022/08/23 08:24:17;;;;;;;3.30;2.20;;;22.40;28.70;;;;;;5054530;28;20075;-87
2022/08/23 08:26:43;;;;;;;5.13;2.65;;;22.60;29.60;;;;;;5054655;28;20029;-87
2022/08/23 08:29:12;;;;;;;4.32;2.63;;;22.80;34.60;;;;;;5054187;28;20049;-87
2022/08/23 08:31:40;;;;;;;3.70;2.40;;;22.70;34.30;;;;;;5054401;28;20485;-87
2022/08/23 08:34:06;;;;;;;4.53;2.60;;;22.70;35.40;;;;;;5054184;28;20029;-87
2022/08/23 08:36:37;;;;;;;3.78;2.60;;;22.90;39.80;;;;;;5054507;28;20083;-87
2022/08/23 08:39:15;;;;;;;4.75;2.47;;;23.00;30.50;;;;;;5054422;28;20056;-88
2022/08/23 08:42:05;;;;;;;3.95;2.80;;;23.10;32.20;;;;;;5054386;28;20049;-87
2022/08/23 08:44:46;;;;;;;4.82;2.45;;;23.20;41.60;;;;;;5054267;28;20025;-87
2022/08/23 08:47:20;;;;;;;5.70;2.45;;;23.20;30.10;;;;;;5053873;28;20480;-87
2022/08/23 08:49:55;;;;;;;4.30;2.45;;;23.40;25.50;;;;;;5054208;28;20071;-87
2022/08/23 08:52:24;;;;;;;4.32;2.58;;;23.50;27.80;;;;;;5054071;28;20379;-87
2022/08/23 08:54:58;;;;;;;6.32;2.50;;;23.70;23.60;;;;;;5054145;28;20413;-87
2022/08/23 08:57:24;;;;;;;6.07;2.80;;;23.70;26.50;;;;;;5054106;28;20033;-87
2022/08/23 08:59:54;;;;;;;4.82;2.55;;;23.80;22.90;;;;;;5053911;28;20100;-88
2022/08/23 09:02:21;;;;;;;4.78;2.72;;;23.60;23.50;;;;;;5053736;28;20049;-87
2022/08/23 09:04:46;;;;;;;8.38;2.53;;;23.80;37.20;;;;;;5053907;28;20021;-87
2022/08/23 09:07:38;;;;;;;4.75;2.90;;;24.00;35.30;;;;;;5053935;28;20032;-87
2022/08/23 09:10:24;;;;;;;3.78;2.47;;;24.00;29.20;;;;;;5053892;28;20032;-88
2022/08/23 09:12:52;;;;;;;4.85;2.88;;;24.00;29.90;;;;;;5053600;28;20116;-88
2022/08/23 09:15:51;;;;;;;2.88;2.45;;;24.00;30.30;;;;;;5053520;28;20013;-88
2022/08/23 09:18:18;;;;;;;3.63;2.05;;;24.20;32.20;;;;;;5053371;28;20116;-87
2022/08/23 09:20:46;;;;;;;4.80;2.65;;;24.20;24.90;;;;;;5053726;28;20055;-88
2022/08/23 09:23:26;;;;;;;4.55;2.40;;;24.20;29.50;;;;;;5053600;28;20033;-88
2022/08/23 09:25:59;;;;;;;3.40;2.60;;;24.30;29.60;;;;;;5053384;28;20079;-88
2022/08/23 09:28:26;;;;;;;8.00;2.63;;;24.50;31.30;;;;;;5053232;28;20467;-88
2022/08/23 09:30:54;;;;;;;4.60;2.90;;;24.70;26.30;;;;;;5053098;28;20070;-88
2022/08/23 09:33:26;;;;;;;5.50;2.80;;;24.70;31.10;;;;;;5053363;28;20517;-88
2022/08/23 09:36:17;;;;;;;6.45;2.60;;;24.60;29.00;;;;;;5053422;28;20067;-87
2022/08/23 09:38:56;;;;;;;5.90;2.60;;;24.80;34.60;;;;;;5053447;28;20053;-88
2022/08/23 09:41:35;;;;;;;4.57;2.40;;;24.70;33.60;;;;;;5052368;28;20108;-88
2022/08/23 09:44:01;;;;;;;3.92;2.20;;;24.90;32.90;;;;;;5053131;28;20025;-88
2022/08/23 09:46:31;;;;;;;3.55;2.63;;;25.10;28.50;;;;;;5052826;28;20035;-87
2022/08/23 09:48:59;;;;;;;5.00;2.90;;;25.20;31.70;;;;;;5053136;28;20025;-88
2022/08/23 09:51:36;;;;;;;2.83;2.35;;;25.40;31.30;;;;;;5053078;28;20441;-87
2022/08/23 09:54:42;;;;;;;6.85;2.53;;;25.40;28.80;;;;;;5052889;28;20025;-88
2022/08/23 09:57:09;;;;;;;7.30;2.85;;;25.60;29.00;;;;;;5052311;28;20041;-87
2022/08/23 09:59:50;;;;;;;3.83;2.70;;;25.70;26.50;;;;;;5052833;28;20033;-88
2022/08/23 10:02:30;;;;;;;3.65;2.22;;;25.60;28.80;;;;;;5052878;28;20025;-88
2022/08/23 10:05:06;;;;;;;4.88;2.40;;;25.90;27.80;;;;;;5052746;28;20025;-88
2022/08/23 10:07:54;;;;;;;2.88;2.20;;;25.90;29.50;;;;;;5052852;28;20516;-87
2022/08/23 10:10:23;;;;;;;4.13;2.35;;;26.20;28.10;;;;;;5041794;28;20037;-87
2022/08/23 10:12:50;;;;;;;3.83;2.60;;;26.40;27.00;;;;;;5052782;28;20063;-88
2022/08/23 10:15:16;;;;;;;5.20;2.38;;;26.60;41.30;;;;;;5052193;28;20036;-88
2022/08/23 10:17:53;;;;;;;3.25;2.10;;;26.80;30.30;;;;;;5052693;28;20393;-88
2022/08/23 10:20:27;;;;;;;3.15;1.92;;;27.40;31.00;;;;;;5052599;28;20025;-88
2022/08/23 10:23:16;;;;;;;3.70;2.17;;;29.50;36.80;;;;;;5052601;28;20049;-88
2022/08/23 10:25:49;;;;;;;5.43;2.28;;;34.40;41.60;;;;;;5029875;28;20079;-88
2022/08/23 10:31:41;;;;;;;3.55;2.33;;;39.10;49.00;;;;;;5028788;28;20036;-88
2022/08/23 10:34:25;;;;;;;5.55;2.10;;;40.30;53.50;;;;;;5032518;28;20037;-88
2022/08/23 10:37:22;;;;;;;5.45;2.22;;;42.50;56.30;;;;;;5032552;28;20036;-88
2022/08/23 10:40:05;;;;;;;3.65;2.22;;;42.00;51.90;;;;;;5032506;28;20455;-89
2022/08/23 10:42:47;;;;;;;4.10;2.00;;;41.90;54.70;;;;;;5032475;28;20026;-88
2022/08/23 10:45:37;;;;;;;2.90;1.98;;;43.40;44.00;;;;;;5032101;28;20438;-88
2022/08/23 10:48:16;;;;;;;3.78;1.80;;;43.20;38.10;;;;;;5032407;28;20018;-89
2022/08/23 10:50:54;;;;;;;4.78;2.20;;;43.20;41.80;;;;;;5032290;28;20641;-88
2022/08/23 10:53:20;;;;;;;2.63;2.03;;;43.10;25.20;;;;;;5035700;28;20497;-89
2022/08/23 10:56:01;;;;;;;2.83;2.08;;;43.10;35.60;;;;;;5036335;28;20372;-89
2022/08/23 10:58:51;;;;;;;4.38;1.90;;;42.50;33.80;;;;;;5036095;28;20414;-89
2022/08/23 11:01:24;;;;;;;3.67;2.15;;;43.90;31.50;;;;;;5036259;28;20037;-89
2022/08/23 11:04:01;;;;;;;6.28;1.88;;;45.20;29.10;;;;;;5036372;28;20029;-89
2022/08/23 11:06:35;;;;;;;4.88;2.10;;;45.20;26.60;;;;;;5036235;28;20022;-89
2022/08/23 11:09:01;;;;;;;2.30;1.83;;;46.80;23.10;;;;;;5036166;28;20034;-89
2022/08/23 11:11:43;;;;;;;3.17;1.98;;;46.10;40.40;;;;;;5036184;28;20044;-89
2022/08/23 11:14:24;;;;;;;2.88;2.05;;;46.00;28.60;;;;;;5043941;28;20021;-89
2022/08/23 11:16:58;;;;;;;4.80;2.25;;;45.30;31.50;;;;;;5056041;28;20147;-89
2022/08/23 11:19:48;;;;;;;3.45;1.92;;;44.70;29.30;;;;;;5056033;28;20017;-89
2022/08/23 11:22:24;;;;;;;5.95;2.38;;;45.20;25.00;;;;;;5055907;28;20509;-89
2022/08/23 11:25:02;;;;;;;2.60;1.85;;;45.60;27.90;;;;;;5055783;28;20029;-89
2022/08/23 11:27:30;;;;;;;2.65;1.80;;;45.90;28.00;;;;;;5055297;28;20041;-89
2022/08/23 11:29:56;;;;;;;2.95;1.80;;;45.10;24.10;;;;;;5055732;28;20040;-90
2022/08/23 11:32:31;;;;;;;4.28;2.00;;;46.10;22.10;;;;;;5037735;28;20086;-89
2022/08/23 11:35:22;;;;;;;4.03;1.92;;;47.10;23.70;;;;;;5055590;28;20712;-89
2022/08/23 11:37:52;;;;;;;3.05;1.80;;;47.00;25.10;;;;;;5055411;28;20049;-89
2022/08/23 11:40:49;;;;;;;2.92;1.80;;;45.40;25.20;;;;;;5055643;28;20029;-90
2022/08/23 11:43:34;;;;;;;2.50;1.92;;;46.20;22.20;;;;;;4974253;28;20082;-89
2022/08/23 11:46:21;;;;;;;3.63;2.03;;;46.20;18.80;;;;;;4974708;28;20482;-90
2022/08/23 11:48:54;;;;;;;2.28;1.58;;;47.70;18.70;;;;;;4974462;28;20504;-89
2022/08/23 11:51:36;;;;;;;5.75;2.35;;;47.30;31.60;;;;;;4974519;28;20484;-89
2022/08/23 11:54:25;;;;;;;2.92;1.80;;;45.60;32.40;;;;;;4974464;28;20038;-89
2022/08/23 11:57:14;;;;;;;3.58;1.80;;;45.40;27.10;;;;;;4974183;28;20042;-89
2022/08/23 12:00:06;;;;;;;2.67;1.73;;;45.60;25.80;;;;;;4966642;28;20488;-89
2022/08/23 12:02:37;;;;;;;5.38;1.70;;;45.70;25.50;;;;;;4974420;28;20031;-89
2022/08/23 12:05:22;;;;;;;4.25;1.85;;;46.50;26.20;;;;;;4973459;28;20027;-89
2022/08/23 12:08:20;;;;;;;2.80;1.58;;;47.20;23.80;;;;;;4974222;28;20484;-89
2022/08/23 12:10:46;;;;;;;1.70;1.50;;;46.70;27.90;;;;;;4973712;28;20034;-88
2022/08/23 12:13:21;;;;;;;2.17;1.70;;;47.60;21.80;;;;;;4973879;28;20038;-89
2022/08/23 12:16:10;;;;;;;3.78;1.67;;;46.40;23.40;;;;;;4974056;28;20030;-89
2022/08/23 12:18:42;;;;;;;4.68;1.65;;;46.40;26.30;;;;;;4973968;28;20057;-90
2022/08/23 12:21:15;;;;;;;2.75;1.60;;;46.00;22.70;;;;;;5047214;28;20474;-89
2022/08/23 12:23:49;;;;;;;3.55;1.73;;;46.40;20.70;;;;;;5054676;28;20055;-89
2022/08/23 12:26:39;;;;;;;2.95;1.90;;;46.30;23.70;;;;;;5054370;28;20029;-89
2022/08/23 12:29:11;;;;;;;3.08;1.75;;;45.50;22.30;;;;;;5054327;28;20092;-90
2022/08/23 12:31:52;;;;;;;2.38;1.90;;;45.80;23.30;;;;;;5054580;28;20037;-89
2022/08/23 12:34:26;;;;;;;3.70;1.90;;;46.90;19.70;;;;;;5054441;28;20517;-90
2022/08/23 12:36:53;;;;;;;2.53;2.00;;;46.20;16.00;;;;;;5054563;28;20032;-90
2022/08/23 12:39:33;;;;;;;2.92;1.90;;;45.60;19.30;;;;;;5054174;28;20104;-90
2022/08/23 12:42:24;;;;;;;3.88;1.90;;;46.00;16.50;;;;;;5054455;28;20024;-90
2022/08/23 12:45:00;;;;;;;3.55;2.08;;;47.50;21.50;;;;;;5054200;28;20500;-90
2022/08/23 12:47:25;;;;;;;4.65;2.20;;;47.70;19.80;;;;;;5054488;28;20044;-90
2022/08/23 12:49:56;;;;;;;2.88;2.08;;;47.20;20.30;;;;;;5054242;28;20064;-90
2022/08/23 12:52:29;;;;;;;2.28;1.90;;;47.20;15.60;;;;;;5054144;28;20040;-90
2022/08/23 12:54:56;;;;;;;3.78;1.92;;;46.70;15.10;;;;;;5035740;28;20671;-87
2022/08/23 12:57:35;;;;;;;2.85;2.00;;;45.40;15.50;;;;;;5054107;28;20444;-87
2022/08/23 13:00:14;;;;;;;3.25;1.95;;;45.50;18.10;;;;;;5054156;28;20017;-88
2022/08/23 13:03:01;;;;;;;3.65;1.60;;;46.80;15.90;;;;;;5054048;28;20033;-88
2022/08/23 13:05:32;;;;;;;3.08;1.95;;;47.30;18.50;;;;;;5053971;28;20021;-87
2022/08/23 13:08:01;;;;;;;3.17;1.90;;;46.90;13.30;;;;;;5054034;28;20136;-87
2022/08/23 13:10:27;;;;;;;3.20;2.00;;;45.70;17.00;;;;;;5053606;28;20013;-87
2022/08/23 13:12:53;;;;;;;4.85;2.10;;;45.40;15.90;;;;;;5053635;28;20512;-88
2022/08/23 13:15:42;;;;;;;2.45;2.03;;;44.70;11.00;;;;;;5053659;28;20074;-88
2022/08/23 13:18:07;;;;;;;2.17;1.98;;;45.80;17.00;;;;;;5053774;28;20017;-88